ビサウ の空港の天気 - METARとTAF

オスヴァルド・ヴィエイラ国際空港 ( GGOV / OXB ) - ギニアビサウ ビサウ
飛行場実況気象(Metar)
観測時間01/16 17:00 GMT (01/16 17:00 UTC)
風向・風速南西 2m/s
視程10km以上
天気現象
なし
気温28℃
湿度66%
気圧1010hPa
METARGGOV 161700Z 23004KT 190V280 CAVOK 28/21 Q1010 NOSIG
過去の天気等 Google飛行場航空写真 Wunderground天気予報

過去48時間のMETAR

飛行場予報(TAF)
発表時間: 1/16 17:00 GMT (1/16 17:00 UTC)
予報対象時間: 16日18時 GMT ~ 17日18時 GMT
風向・風速不定 3m/s
視程8000m
なし
17日5時 GMT ~ 17日9時 GMT に一時的に
視程3000m
天気現象もや
TAF GGOV 161700Z 1618/1718 VRB05KT 8000 NSC
TEMPO 1705/1709 3000 BR